Main page
Satellite images 10-day forecastsClimateMarine weather Cyclones Lightning AirportsFAQ Newsletter About
Weather : Europe Africa North America South America Asia Australia-Oceania Others
Languages Contact

Gloucester, England

Gloucestershire Airport

latitude: 51-54N, longitude: 002-10W, elevation: 29 m


METAR: EGBJ 021550Z 19011G21KT 140V240 CAVOK 25/10 Q1012
TAF: EGBJ 021402Z 0215/0219 17010KT 9999 SCT040

Time: 17:18 (16:18 UTC)

Current weather observation

The report was made 28 minutes ago, at 15:50 UTC
Wind 11 kt from the South with gusts up to 21 kt, varying between Southeast and West/Southwest
Temperature 25°C
Humidity 39%
Pressure 1012 hPa
Visibility 10 km or more
no clouds below 1500 m and no cumulonimbus

Change units

Forecast

The report was made 2 hours and 16 minutes ago, at 14:02 UTC
Forecast valid from 02 at 15 UTC to 02 at 19 UTC
Wind 10 kt from the South
Visibility 10 km or more
Scattered clouds at a height of 4000 ft
The information on this site is subject to a disclaimer
Weather : Europe Africa North America South America Asia Australia-Oceania Others
Satellite images 10-day forecastsClimateMarine weather Cyclones Lightning AirportsFAQ Languages Contact Newsletter About